sensor_id;sensor_type;location;lat;lon;timestamp;temperature;humidity
16829;DHT22;8531;48.078;11.968;2024-02-21T00:01:42;4.80;99.90
16829;DHT22;8531;48.078;11.968;2024-02-21T00:04:08;4.80;99.90
16829;DHT22;8531;48.078;11.968;2024-02-21T00:06:33;4.80;99.90
16829;DHT22;8531;48.078;11.968;2024-02-21T00:08:59;4.80;99.90
16829;DHT22;8531;48.078;11.968;2024-02-21T00:11:25;4.80;99.90
16829;DHT22;8531;48.078;11.968;2024-02-21T00:13:50;4.80;99.90
16829;DHT22;8531;48.078;11.968;2024-02-21T00:16:16;4.90;99.90
16829;DHT22;8531;48.078;11.968;2024-02-21T00:18:43;4.90;99.90
16829;DHT22;8531;48.078;11.968;2024-02-21T00:21:08;4.90;99.90
16829;DHT22;8531;48.078;11.968;2024-02-21T00:23:34;4.90;99.90
16829;DHT22;8531;48.078;11.968;2024-02-21T00:26:00;4.80;99.90
16829;DHT22;8531;48.078;11.968;2024-02-21T00:28:25;4.70;99.90
16829;DHT22;8531;48.078;11.968;2024-02-21T00:30:51;4.60;99.90
16829;DHT22;8531;48.078;11.968;2024-02-21T00:33:18;4.50;99.90
16829;DHT22;8531;48.078;11.968;2024-02-21T00:35:44;4.40;99.90
16829;DHT22;8531;48.078;11.968;2024-02-21T00:38:10;4.40;99.90
16829;DHT22;8531;48.078;11.968;2024-02-21T00:40:36;4.30;99.90
16829;DHT22;8531;48.078;11.968;2024-02-21T00:43:02;4.40;99.90
16829;DHT22;8531;48.078;11.968;2024-02-21T00:45:28;4.40;99.90
16829;DHT22;8531;48.078;11.968;2024-02-21T00:47:54;4.50;99.90
16829;DHT22;8531;48.078;11.968;2024-02-21T00:50:19;4.60;99.90
16829;DHT22;8531;48.078;11.968;2024-02-21T00:52:45;4.60;99.90
16829;DHT22;8531;48.078;11.968;2024-02-21T00:55:11;4.70;99.90
16829;DHT22;8531;48.078;11.968;2024-02-21T00:57:36;4.70;99.90
16829;DHT22;8531;48.078;11.968;2024-02-21T01:00:03;4.70;99.90
16829;DHT22;8531;48.078;11.968;2024-02-21T01:02:29;4.70;99.90
16829;DHT22;8531;48.078;11.968;2024-02-21T01:04:57;4.70;99.90
16829;DHT22;8531;48.078;11.968;2024-02-21T01:07:23;4.60;99.90
16829;DHT22;8531;48.078;11.968;2024-02-21T01:09:49;4.70;99.90
16829;DHT22;8531;48.078;11.968;2024-02-21T01:12:16;4.60;99.90
16829;DHT22;8531;48.078;11.968;2024-02-21T01:14:42;4.60;99.90
16829;DHT22;8531;48.078;11.968;2024-02-21T01:17:08;4.60;99.90
16829;DHT22;8531;48.078;11.968;2024-02-21T01:19:34;4.60;99.90
16829;DHT22;8531;48.078;11.968;2024-02-21T01:21:59;4.70;99.90
16829;DHT22;8531;48.078;11.968;2024-02-21T01:24:25;4.70;99.90
16829;DHT22;8531;48.078;11.968;2024-02-21T01:26:51;4.70;99.90
16829;DHT22;8531;48.078;11.968;2024-02-21T01:29:16;4.80;99.90
16829;DHT22;8531;48.078;11.968;2024-02-21T01:31:42;4.80;99.90
16829;DHT22;8531;48.078;11.968;2024-02-21T01:34:08;4.70;99.90
16829;DHT22;8531;48.078;11.968;2024-02-21T01:36:33;4.60;99.90
16829;DHT22;8531;48.078;11.968;2024-02-21T01:38:59;4.60;99.90
16829;DHT22;8531;48.078;11.968;2024-02-21T01:41:25;4.60;99.90
16829;DHT22;8531;48.078;11.968;2024-02-21T01:43:50;4.70;99.90
16829;DHT22;8531;48.078;11.968;2024-02-21T01:46:16;4.70;99.90
16829;DHT22;8531;48.078;11.968;2024-02-21T01:48:42;4.70;99.90
16829;DHT22;8531;48.078;11.968;2024-02-21T01:51:08;4.70;99.90
16829;DHT22;8531;48.078;11.968;2024-02-21T01:53:42;4.70;99.90
16829;DHT22;8531;48.078;11.968;2024-02-21T01:56:08;4.70;99.90
16829;DHT22;8531;48.078;11.968;2024-02-21T01:58:37;4.70;99.90
16829;DHT22;8531;48.078;11.968;2024-02-21T02:01:04;4.70;99.90
16829;DHT22;8531;48.078;11.968;2024-02-21T02:03:30;4.80;99.90
16829;DHT22;8531;48.078;11.968;2024-02-21T02:05:56;4.70;99.90
16829;DHT22;8531;48.078;11.968;2024-02-21T02:08:22;4.70;99.90
16829;DHT22;8531;48.078;11.968;2024-02-21T02:10:48;4.70;99.90
16829;DHT22;8531;48.078;11.968;2024-02-21T02:13:14;4.70;99.90
16829;DHT22;8531;48.078;11.968;2024-02-21T02:15:44;4.60;99.90
16829;DHT22;8531;48.078;11.968;2024-02-21T02:18:10;4.60;99.90
16829;DHT22;8531;48.078;11.968;2024-02-21T02:20:36;4.60;99.90
16829;DHT22;8531;48.078;11.968;2024-02-21T02:23:31;4.70;99.90
16829;DHT22;8531;48.078;11.968;2024-02-21T02:25:57;4.80;99.90
16829;DHT22;8531;48.078;11.968;2024-02-21T02:28:24;4.80;99.90
16829;DHT22;8531;48.078;11.968;2024-02-21T02:30:50;4.80;99.90
16829;DHT22;8531;48.078;11.968;2024-02-21T02:33:16;4.70;99.90
16829;DHT22;8531;48.078;11.968;2024-02-21T02:35:45;4.70;99.90
16829;DHT22;8531;48.078;11.968;2024-02-21T02:38:11;4.70;99.90
16829;DHT22;8531;48.078;11.968;2024-02-21T02:40:38;4.80;99.90
16829;DHT22;8531;48.078;11.968;2024-02-21T02:43:04;4.80;99.90
16829;DHT22;8531;48.078;11.968;2024-02-21T02:45:30;4.70;99.90
16829;DHT22;8531;48.078;11.968;2024-02-21T02:47:56;4.80;99.90
16829;DHT22;8531;48.078;11.968;2024-02-21T02:50:23;4.70;99.90
16829;DHT22;8531;48.078;11.968;2024-02-21T02:52:49;4.60;99.90
16829;DHT22;8531;48.078;11.968;2024-02-21T02:55:15;4.50;99.90
16829;DHT22;8531;48.078;11.968;2024-02-21T02:57:40;4.60;99.90
16829;DHT22;8531;48.078;11.968;2024-02-21T03:00:11;4.50;99.90
16829;DHT22;8531;48.078;11.968;2024-02-21T03:02:38;4.60;99.90
16829;DHT22;8531;48.078;11.968;2024-02-21T03:05:19;4.60;99.90
16829;DHT22;8531;48.078;11.968;2024-02-21T03:07:45;4.70;99.90
16829;DHT22;8531;48.078;11.968;2024-02-21T03:10:11;4.60;99.90
16829;DHT22;8531;48.078;11.968;2024-02-21T03:12:37;4.60;99.90
16829;DHT22;8531;48.078;11.968;2024-02-21T03:15:04;4.70;99.90
16829;DHT22;8531;48.078;11.968;2024-02-21T03:17:30;4.60;99.90
16829;DHT22;8531;48.078;11.968;2024-02-21T03:19:57;4.70;99.90
16829;DHT22;8531;48.078;11.968;2024-02-21T03:22:22;4.70;99.90
16829;DHT22;8531;48.078;11.968;2024-02-21T03:24:49;4.70;99.90
16829;DHT22;8531;48.078;11.968;2024-02-21T03:27:14;4.70;99.90
16829;DHT22;8531;48.078;11.968;2024-02-21T03:29:40;4.70;99.90
16829;DHT22;8531;48.078;11.968;2024-02-21T03:32:06;4.60;99.90
16829;DHT22;8531;48.078;11.968;2024-02-21T03:34:31;4.50;99.90
16829;DHT22;8531;48.078;11.968;2024-02-21T03:36:57;4.60;99.90
16829;DHT22;8531;48.078;11.968;2024-02-21T03:39:24;4.60;99.90
16829;DHT22;8531;48.078;11.968;2024-02-21T03:41:50;4.70;99.90
16829;DHT22;8531;48.078;11.968;2024-02-21T03:44:16;4.70;99.90
16829;DHT22;8531;48.078;11.968;2024-02-21T03:46:42;4.70;99.90
16829;DHT22;8531;48.078;11.968;2024-02-21T03:49:07;4.70;99.90
16829;DHT22;8531;48.078;11.968;2024-02-21T03:51:33;4.70;99.90
16829;DHT22;8531;48.078;11.968;2024-02-21T03:53:59;4.60;99.90
16829;DHT22;8531;48.078;11.968;2024-02-21T03:56:24;4.50;99.90
16829;DHT22;8531;48.078;11.968;2024-02-21T03:58:50;4.60;99.90
16829;DHT22;8531;48.078;11.968;2024-02-21T04:01:16;4.50;99.90
16829;DHT22;8531;48.078;11.968;2024-02-21T04:03:43;4.50;99.90
16829;DHT22;8531;48.078;11.968;2024-02-21T04:06:09;4.50;99.90
16829;DHT22;8531;48.078;11.968;2024-02-21T04:08:35;4.50;99.90
16829;DHT22;8531;48.078;11.968;2024-02-21T04:11:01;4.50;99.90
16829;DHT22;8531;48.078;11.968;2024-02-21T04:13:26;4.50;99.90
16829;DHT22;8531;48.078;11.968;2024-02-21T04:15:52;4.60;99.90
16829;DHT22;8531;48.078;11.968;2024-02-21T04:18:18;4.60;99.90
16829;DHT22;8531;48.078;11.968;2024-02-21T04:20:43;4.60;99.90
16829;DHT22;8531;48.078;11.968;2024-02-21T04:23:09;4.60;99.90
16829;DHT22;8531;48.078;11.968;2024-02-21T04:25:35;4.70;99.90
16829;DHT22;8531;48.078;11.968;2024-02-21T04:28:01;4.80;99.90
16829;DHT22;8531;48.078;11.968;2024-02-21T04:30:26;4.60;99.90
16829;DHT22;8531;48.078;11.968;2024-02-21T04:32:52;4.60;99.90
16829;DHT22;8531;48.078;11.968;2024-02-21T04:35:18;4.50;99.90
16829;DHT22;8531;48.078;11.968;2024-02-21T04:37:43;4.70;99.90
16829;DHT22;8531;48.078;11.968;2024-02-21T04:40:10;4.60;99.90
16829;DHT22;8531;48.078;11.968;2024-02-21T04:42:36;4.50;99.90
16829;DHT22;8531;48.078;11.968;2024-02-21T04:45:02;4.50;99.90
16829;DHT22;8531;48.078;11.968;2024-02-21T04:47:28;4.50;99.90
16829;DHT22;8531;48.078;11.968;2024-02-21T04:49:53;4.50;99.90
16829;DHT22;8531;48.078;11.968;2024-02-21T04:52:19;4.40;99.90
16829;DHT22;8531;48.078;11.968;2024-02-21T04:54:45;4.40;99.90
16829;DHT22;8531;48.078;11.968;2024-02-21T04:57:10;4.30;99.90
16829;DHT22;8531;48.078;11.968;2024-02-21T04:59:36;4.30;99.90
16829;DHT22;8531;48.078;11.968;2024-02-21T05:02:02;4.30;99.90
16829;DHT22;8531;48.078;11.968;2024-02-21T05:04:28;4.30;99.90
16829;DHT22;8531;48.078;11.968;2024-02-21T05:06:54;4.40;99.90
16829;DHT22;8531;48.078;11.968;2024-02-21T05:09:20;4.40;99.90
16829;DHT22;8531;48.078;11.968;2024-02-21T05:11:47;4.50;99.90
16829;DHT22;8531;48.078;11.968;2024-02-21T05:14:13;4.50;99.90
16829;DHT22;8531;48.078;11.968;2024-02-21T05:16:39;4.50;99.90
16829;DHT22;8531;48.078;11.968;2024-02-21T05:19:05;4.50;99.90
16829;DHT22;8531;48.078;11.968;2024-02-21T05:21:31;4.40;99.90
16829;DHT22;8531;48.078;11.968;2024-02-21T05:23:56;4.40;99.90
16829;DHT22;8531;48.078;11.968;2024-02-21T05:26:25;4.30;99.90
16829;DHT22;8531;48.078;11.968;2024-02-21T05:28:51;4.30;99.90
16829;DHT22;8531;48.078;11.968;2024-02-21T05:31:18;4.20;99.90
16829;DHT22;8531;48.078;11.968;2024-02-21T05:33:44;4.20;99.90
16829;DHT22;8531;48.078;11.968;2024-02-21T05:36:10;4.10;99.90
16829;DHT22;8531;48.078;11.968;2024-02-21T05:38:36;4.10;99.90
16829;DHT22;8531;48.078;11.968;2024-02-21T05:41:02;4.10;99.90
16829;DHT22;8531;48.078;11.968;2024-02-21T05:43:27;4.10;99.90
16829;DHT22;8531;48.078;11.968;2024-02-21T05:45:53;4.10;99.90
16829;DHT22;8531;48.078;11.968;2024-02-21T05:48:20;4.10;99.90
16829;DHT22;8531;48.078;11.968;2024-02-21T05:50:45;4.10;99.90
16829;DHT22;8531;48.078;11.968;2024-02-21T05:53:11;4.10;99.90
16829;DHT22;8531;48.078;11.968;2024-02-21T05:55:38;4.10;99.90
16829;DHT22;8531;48.078;11.968;2024-02-21T05:58:03;4.00;99.90
16829;DHT22;8531;48.078;11.968;2024-02-21T06:00:29;4.00;99.90
16829;DHT22;8531;48.078;11.968;2024-02-21T06:02:55;3.80;99.90
16829;DHT22;8531;48.078;11.968;2024-02-21T06:05:21;3.80;99.90
16829;DHT22;8531;48.078;11.968;2024-02-21T06:07:46;3.80;99.90
16829;DHT22;8531;48.078;11.968;2024-02-21T06:10:12;3.80;99.90
16829;DHT22;8531;48.078;11.968;2024-02-21T06:12:38;3.80;99.90
16829;DHT22;8531;48.078;11.968;2024-02-21T06:15:04;3.80;99.90
16829;DHT22;8531;48.078;11.968;2024-02-21T06:17:30;3.80;99.90
16829;DHT22;8531;48.078;11.968;2024-02-21T06:19:55;3.80;99.90
16829;DHT22;8531;48.078;11.968;2024-02-21T06:22:21;3.90;99.90
16829;DHT22;8531;48.078;11.968;2024-02-21T06:24:46;3.80;99.90
16829;DHT22;8531;48.078;11.968;2024-02-21T06:27:12;3.80;99.90
16829;DHT22;8531;48.078;11.968;2024-02-21T06:29:40;3.90;99.90
16829;DHT22;8531;48.078;11.968;2024-02-21T06:32:05;3.90;99.90
16829;DHT22;8531;48.078;11.968;2024-02-21T06:34:31;3.80;99.90
16829;DHT22;8531;48.078;11.968;2024-02-21T06:36:57;3.90;99.90
16829;DHT22;8531;48.078;11.968;2024-02-21T06:39:23;3.90;99.90
16829;DHT22;8531;48.078;11.968;2024-02-21T06:41:49;3.90;99.90
16829;DHT22;8531;48.078;11.968;2024-02-21T06:44:16;3.90;99.90
16829;DHT22;8531;48.078;11.968;2024-02-21T06:46:42;4.00;99.90
16829;DHT22;8531;48.078;11.968;2024-02-21T06:49:08;4.00;99.90
16829;DHT22;8531;48.078;11.968;2024-02-21T06:51:33;4.10;99.90
16829;DHT22;8531;48.078;11.968;2024-02-21T06:54:00;4.00;99.90
16829;DHT22;8531;48.078;11.968;2024-02-21T06:56:26;4.10;99.90
16829;DHT22;8531;48.078;11.968;2024-02-21T06:58:57;4.10;99.90
16829;DHT22;8531;48.078;11.968;2024-02-21T07:01:26;4.10;99.90
16829;DHT22;8531;48.078;11.968;2024-02-21T07:03:52;4.10;99.90
16829;DHT22;8531;48.078;11.968;2024-02-21T07:06:17;4.10;99.90
16829;DHT22;8531;48.078;11.968;2024-02-21T07:08:43;4.30;99.90
16829;DHT22;8531;48.078;11.968;2024-02-21T07:11:09;4.30;99.90
16829;DHT22;8531;48.078;11.968;2024-02-21T07:13:34;4.50;99.90
16829;DHT22;8531;48.078;11.968;2024-02-21T07:16:00;4.50;99.90
16829;DHT22;8531;48.078;11.968;2024-02-21T07:18:26;4.50;99.90
16829;DHT22;8531;48.078;11.968;2024-02-21T07:20:52;4.60;99.90
16829;DHT22;8531;48.078;11.968;2024-02-21T07:23:18;4.60;99.90
16829;DHT22;8531;48.078;11.968;2024-02-21T07:25:44;4.60;99.90
16829;DHT22;8531;48.078;11.968;2024-02-21T07:28:10;4.70;99.90
16829;DHT22;8531;48.078;11.968;2024-02-21T07:30:36;4.70;99.90
16829;DHT22;8531;48.078;11.968;2024-02-21T07:33:02;4.80;99.90
16829;DHT22;8531;48.078;11.968;2024-02-21T07:35:28;4.90;99.90
16829;DHT22;8531;48.078;11.968;2024-02-21T07:37:53;5.00;99.90
16829;DHT22;8531;48.078;11.968;2024-02-21T07:40:19;4.90;99.90
16829;DHT22;8531;48.078;11.968;2024-02-21T07:42:45;4.90;99.90
16829;DHT22;8531;48.078;11.968;2024-02-21T07:45:11;5.00;99.90
16829;DHT22;8531;48.078;11.968;2024-02-21T07:47:37;5.00;99.90
16829;DHT22;8531;48.078;11.968;2024-02-21T07:50:03;5.00;99.90
16829;DHT22;8531;48.078;11.968;2024-02-21T07:52:29;5.00;99.90
16829;DHT22;8531;48.078;11.968;2024-02-21T07:54:55;5.00;99.90
16829;DHT22;8531;48.078;11.968;2024-02-21T07:57:21;5.10;99.90
16829;DHT22;8531;48.078;11.968;2024-02-21T07:59:47;5.30;99.90
16829;DHT22;8531;48.078;11.968;2024-02-21T08:02:14;5.40;99.90
16829;DHT22;8531;48.078;11.968;2024-02-21T08:04:39;5.30;99.90
16829;DHT22;8531;48.078;11.968;2024-02-21T08:07:07;5.20;99.90
16829;DHT22;8531;48.078;11.968;2024-02-21T08:09:35;5.20;99.90
16829;DHT22;8531;48.078;11.968;2024-02-21T08:12:02;5.10;99.90
16829;DHT22;8531;48.078;11.968;2024-02-21T08:14:28;5.20;99.90
16829;DHT22;8531;48.078;11.968;2024-02-21T08:16:53;5.20;99.90
16829;DHT22;8531;48.078;11.968;2024-02-21T08:19:20;5.30;99.90
16829;DHT22;8531;48.078;11.968;2024-02-21T08:21:46;5.40;99.90
16829;DHT22;8531;48.078;11.968;2024-02-21T08:24:15;5.50;99.90
16829;DHT22;8531;48.078;11.968;2024-02-21T08:26:44;5.60;99.90
16829;DHT22;8531;48.078;11.968;2024-02-21T08:29:12;5.80;99.90
16829;DHT22;8531;48.078;11.968;2024-02-21T08:31:38;5.90;99.90
16829;DHT22;8531;48.078;11.968;2024-02-21T08:34:04;5.90;99.90
16829;DHT22;8531;48.078;11.968;2024-02-21T08:36:31;5.90;99.90
16829;DHT22;8531;48.078;11.968;2024-02-21T08:38:57;5.90;99.90
16829;DHT22;8531;48.078;11.968;2024-02-21T08:41:24;6.00;99.90
16829;DHT22;8531;48.078;11.968;2024-02-21T08:43:53;6.00;99.90
16829;DHT22;8531;48.078;11.968;2024-02-21T08:46:25;6.00;99.90
16829;DHT22;8531;48.078;11.968;2024-02-21T08:48:52;6.10;99.90
16829;DHT22;8531;48.078;11.968;2024-02-21T08:51:18;6.10;99.90
16829;DHT22;8531;48.078;11.968;2024-02-21T08:53:47;6.10;99.90
16829;DHT22;8531;48.078;11.968;2024-02-21T08:56:13;6.20;99.90
16829;DHT22;8531;48.078;11.968;2024-02-21T08:58:40;6.40;99.90
16829;DHT22;8531;48.078;11.968;2024-02-21T09:01:06;6.40;99.90
16829;DHT22;8531;48.078;11.968;2024-02-21T09:03:36;6.40;99.90
16829;DHT22;8531;48.078;11.968;2024-02-21T09:06:02;6.40;99.90
16829;DHT22;8531;48.078;11.968;2024-02-21T09:08:27;6.50;99.90
16829;DHT22;8531;48.078;11.968;2024-02-21T09:10:53;6.50;99.90
16829;DHT22;8531;48.078;11.968;2024-02-21T09:13:19;6.70;99.90
16829;DHT22;8531;48.078;11.968;2024-02-21T09:15:44;6.70;99.90
16829;DHT22;8531;48.078;11.968;2024-02-21T09:18:10;6.90;99.90
16829;DHT22;8531;48.078;11.968;2024-02-21T09:20:36;7.20;99.90
16829;DHT22;8531;48.078;11.968;2024-02-21T09:23:01;7.40;99.90
16829;DHT22;8531;48.078;11.968;2024-02-21T09:25:27;7.60;99.90
16829;DHT22;8531;48.078;11.968;2024-02-21T09:27:54;7.80;99.90
16829;DHT22;8531;48.078;11.968;2024-02-21T09:30:20;8.00;99.90
16829;DHT22;8531;48.078;11.968;2024-02-21T09:32:46;8.10;99.90
16829;DHT22;8531;48.078;11.968;2024-02-21T09:35:12;8.70;99.90
16829;DHT22;8531;48.078;11.968;2024-02-21T09:37:38;8.60;99.90
16829;DHT22;8531;48.078;11.968;2024-02-21T09:40:05;8.80;99.90
16829;DHT22;8531;48.078;11.968;2024-02-21T09:42:40;8.70;99.90
16829;DHT22;8531;48.078;11.968;2024-02-21T09:45:23;8.50;99.90
16829;DHT22;8531;48.078;11.968;2024-02-21T09:50:53;8.50;99.90
16829;DHT22;8531;48.078;11.968;2024-02-21T09:53:22;8.60;99.90
16829;DHT22;8531;48.078;11.968;2024-02-21T09:55:50;8.60;99.90
16829;DHT22;8531;48.078;11.968;2024-02-21T09:58:16;8.70;99.90
16829;DHT22;8531;48.078;11.968;2024-02-21T10:00:42;8.80;99.90
16829;DHT22;8531;48.078;11.968;2024-02-21T10:03:08;8.80;99.90
16829;DHT22;8531;48.078;11.968;2024-02-21T10:05:37;8.80;99.90
16829;DHT22;8531;48.078;11.968;2024-02-21T10:08:04;8.90;99.90
16829;DHT22;8531;48.078;11.968;2024-02-21T10:10:43;9.10;99.90
16829;DHT22;8531;48.078;11.968;2024-02-21T10:13:10;9.10;99.90
16829;DHT22;8531;48.078;11.968;2024-02-21T10:15:37;9.20;99.90
16829;DHT22;8531;48.078;11.968;2024-02-21T10:18:02;9.30;99.90
16829;DHT22;8531;48.078;11.968;2024-02-21T10:20:32;9.40;99.90
16829;DHT22;8531;48.078;11.968;2024-02-21T10:23:03;9.50;99.90
16829;DHT22;8531;48.078;11.968;2024-02-21T10:25:33;9.70;99.90
16829;DHT22;8531;48.078;11.968;2024-02-21T10:27:59;10.00;99.90
16829;DHT22;8531;48.078;11.968;2024-02-21T10:30:25;10.00;99.90
16829;DHT22;8531;48.078;11.968;2024-02-21T10:32:54;10.20;99.90
16829;DHT22;8531;48.078;11.968;2024-02-21T10:35:33;10.20;99.90
16829;DHT22;8531;48.078;11.968;2024-02-21T10:37:59;10.10;99.90
16829;DHT22;8531;48.078;11.968;2024-02-21T10:40:27;10.20;99.90
16829;DHT22;8531;48.078;11.968;2024-02-21T10:43:02;10.30;99.90
16829;DHT22;8531;48.078;11.968;2024-02-21T10:45:32;10.30;99.90
16829;DHT22;8531;48.078;11.968;2024-02-21T10:48:11;10.40;99.90
16829;DHT22;8531;48.078;11.968;2024-02-21T10:56:32;10.80;99.90
16829;DHT22;8531;48.078;11.968;2024-02-21T10:59:04;11.00;99.90
16829;DHT22;8531;48.078;11.968;2024-02-21T11:01:30;11.30;99.90
16829;DHT22;8531;48.078;11.968;2024-02-21T11:04:06;11.30;99.90
16829;DHT22;8531;48.078;11.968;2024-02-21T11:06:34;11.10;99.90
16829;DHT22;8531;48.078;11.968;2024-02-21T11:09:04;11.20;99.90
16829;DHT22;8531;48.078;11.968;2024-02-21T11:11:40;11.20;99.90
16829;DHT22;8531;48.078;11.968;2024-02-21T11:16:43;11.40;99.90
16829;DHT22;8531;48.078;11.968;2024-02-21T11:19:10;11.50;99.90
16829;DHT22;8531;48.078;11.968;2024-02-21T11:21:44;11.50;99.90
16829;DHT22;8531;48.078;11.968;2024-02-21T11:24:09;11.40;99.90
16829;DHT22;8531;48.078;11.968;2024-02-21T11:26:37;11.40;99.90
16829;DHT22;8531;48.078;11.968;2024-02-21T11:29:03;11.50;99.90
16829;DHT22;8531;48.078;11.968;2024-02-21T11:31:41;11.60;99.90
16829;DHT22;8531;48.078;11.968;2024-02-21T11:34:10;11.70;99.90
16829;DHT22;8531;48.078;11.968;2024-02-21T11:36:46;11.80;99.90
16829;DHT22;8531;48.078;11.968;2024-02-21T11:39:17;11.90;99.90
16829;DHT22;8531;48.078;11.968;2024-02-21T11:41:43;12.00;99.90
16829;DHT22;8531;48.078;11.968;2024-02-21T11:44:09;12.00;99.90
16829;DHT22;8531;48.078;11.968;2024-02-21T11:46:34;11.90;99.90
16829;DHT22;8531;48.078;11.968;2024-02-21T11:49:01;12.10;99.90
16829;DHT22;8531;48.078;11.968;2024-02-21T11:51:29;12.10;99.90
16829;DHT22;8531;48.078;11.968;2024-02-21T11:53:54;12.20;99.90
16829;DHT22;8531;48.078;11.968;2024-02-21T11:56:20;12.30;99.90
16829;DHT22;8531;48.078;11.968;2024-02-21T11:58:46;12.30;99.90
16829;DHT22;8531;48.078;11.968;2024-02-21T12:01:15;12.10;99.90
16829;DHT22;8531;48.078;11.968;2024-02-21T12:03:42;12.10;99.90
16829;DHT22;8531;48.078;11.968;2024-02-21T12:06:15;12.30;99.90
16829;DHT22;8531;48.078;11.968;2024-02-21T12:08:45;12.60;99.90
16829;DHT22;8531;48.078;11.968;2024-02-21T12:11:19;12.80;99.90
16829;DHT22;8531;48.078;11.968;2024-02-21T12:13:46;12.50;99.90
16829;DHT22;8531;48.078;11.968;2024-02-21T12:16:15;12.60;99.90
16829;DHT22;8531;48.078;11.968;2024-02-21T12:18:42;12.60;99.90
16829;DHT22;8531;48.078;11.968;2024-02-21T12:21:07;12.80;99.90
16829;DHT22;8531;48.078;11.968;2024-02-21T12:23:33;13.00;99.90
16829;DHT22;8531;48.078;11.968;2024-02-21T12:25:59;13.20;99.90
16829;DHT22;8531;48.078;11.968;2024-02-21T12:28:25;13.40;99.90
16829;DHT22;8531;48.078;11.968;2024-02-21T12:30:51;13.20;99.90
16829;DHT22;8531;48.078;11.968;2024-02-21T12:33:18;13.30;99.90
16829;DHT22;8531;48.078;11.968;2024-02-21T12:35:43;13.10;99.90
16829;DHT22;8531;48.078;11.968;2024-02-21T12:38:09;13.20;99.90
16829;DHT22;8531;48.078;11.968;2024-02-21T12:40:36;13.30;99.90
16829;DHT22;8531;48.078;11.968;2024-02-21T12:43:02;13.30;99.90
16829;DHT22;8531;48.078;11.968;2024-02-21T12:45:28;13.10;99.90
16829;DHT22;8531;48.078;11.968;2024-02-21T12:47:54;13.20;99.90
16829;DHT22;8531;48.078;11.968;2024-02-21T12:50:20;13.10;99.90
16829;DHT22;8531;48.078;11.968;2024-02-21T12:52:46;13.10;99.90
16829;DHT22;8531;48.078;11.968;2024-02-21T12:55:11;13.30;99.90
16829;DHT22;8531;48.078;11.968;2024-02-21T12:57:39;13.40;99.90
16829;DHT22;8531;48.078;11.968;2024-02-21T13:00:05;13.20;99.90
16829;DHT22;8531;48.078;11.968;2024-02-21T13:02:37;13.20;99.90
16829;DHT22;8531;48.078;11.968;2024-02-21T13:05:03;13.10;99.90
16829;DHT22;8531;48.078;11.968;2024-02-21T13:07:29;12.90;99.90
16829;DHT22;8531;48.078;11.968;2024-02-21T13:09:57;12.80;99.90
16829;DHT22;8531;48.078;11.968;2024-02-21T13:12:23;12.90;99.90
16829;DHT22;8531;48.078;11.968;2024-02-21T13:14:49;13.00;99.90
16829;DHT22;8531;48.078;11.968;2024-02-21T13:17:14;13.00;99.90
16829;DHT22;8531;48.078;11.968;2024-02-21T13:19:42;13.00;99.90
16829;DHT22;8531;48.078;11.968;2024-02-21T13:22:07;12.90;99.90
16829;DHT22;8531;48.078;11.968;2024-02-21T13:24:33;12.80;99.90
16829;DHT22;8531;48.078;11.968;2024-02-21T13:26:59;12.90;99.90
16829;DHT22;8531;48.078;11.968;2024-02-21T13:29:25;13.00;99.90
16829;DHT22;8531;48.078;11.968;2024-02-21T13:31:50;13.10;99.90
16829;DHT22;8531;48.078;11.968;2024-02-21T13:34:16;12.90;99.90
16829;DHT22;8531;48.078;11.968;2024-02-21T13:36:43;12.80;99.90
16829;DHT22;8531;48.078;11.968;2024-02-21T13:39:08;12.90;99.90
16829;DHT22;8531;48.078;11.968;2024-02-21T13:41:38;12.90;99.90
16829;DHT22;8531;48.078;11.968;2024-02-21T13:44:03;13.00;99.90
16829;DHT22;8531;48.078;11.968;2024-02-21T13:46:29;12.80;99.90
16829;DHT22;8531;48.078;11.968;2024-02-21T13:49:03;12.70;99.90
16829;DHT22;8531;48.078;11.968;2024-02-21T13:51:33;12.50;99.90
16829;DHT22;8531;48.078;11.968;2024-02-21T13:54:04;12.50;99.90
16829;DHT22;8531;48.078;11.968;2024-02-21T13:56:31;12.60;99.90
16829;DHT22;8531;48.078;11.968;2024-02-21T13:58:58;12.60;99.90
16829;DHT22;8531;48.078;11.968;2024-02-21T14:01:25;12.50;99.90
16829;DHT22;8531;48.078;11.968;2024-02-21T14:03:51;12.50;99.90
16829;DHT22;8531;48.078;11.968;2024-02-21T14:06:17;12.60;99.90
16829;DHT22;8531;48.078;11.968;2024-02-21T14:08:42;12.50;99.90
16829;DHT22;8531;48.078;11.968;2024-02-21T14:11:08;12.40;99.90
16829;DHT22;8531;48.078;11.968;2024-02-21T14:13:34;12.40;99.90
16829;DHT22;8531;48.078;11.968;2024-02-21T14:16:00;12.30;99.90
16829;DHT22;8531;48.078;11.968;2024-02-21T14:18:25;12.30;99.90
16829;DHT22;8531;48.078;11.968;2024-02-21T14:20:51;12.30;99.90
16829;DHT22;8531;48.078;11.968;2024-02-21T14:23:17;12.30;99.90
16829;DHT22;8531;48.078;11.968;2024-02-21T14:25:44;12.30;99.90
16829;DHT22;8531;48.078;11.968;2024-02-21T14:28:10;12.30;99.90
16829;DHT22;8531;48.078;11.968;2024-02-21T14:30:36;12.40;99.90
16829;DHT22;8531;48.078;11.968;2024-02-21T14:33:01;12.50;99.90
16829;DHT22;8531;48.078;11.968;2024-02-21T14:35:27;12.40;99.90
16829;DHT22;8531;48.078;11.968;2024-02-21T14:37:53;12.30;99.90
16829;DHT22;8531;48.078;11.968;2024-02-21T14:40:21;12.30;99.90
16829;DHT22;8531;48.078;11.968;2024-02-21T14:42:46;12.30;99.90
16829;DHT22;8531;48.078;11.968;2024-02-21T14:45:12;12.40;99.90
16829;DHT22;8531;48.078;11.968;2024-02-21T14:47:39;12.30;99.90
16829;DHT22;8531;48.078;11.968;2024-02-21T14:50:05;12.30;99.90
16829;DHT22;8531;48.078;11.968;2024-02-21T14:52:32;12.30;99.90
16829;DHT22;8531;48.078;11.968;2024-02-21T14:54:58;12.30;99.90
16829;DHT22;8531;48.078;11.968;2024-02-21T14:57:24;12.40;99.90
16829;DHT22;8531;48.078;11.968;2024-02-21T14:59:50;12.40;99.90
16829;DHT22;8531;48.078;11.968;2024-02-21T15:02:24;12.40;99.90
16829;DHT22;8531;48.078;11.968;2024-02-21T15:04:50;12.50;99.90
16829;DHT22;8531;48.078;11.968;2024-02-21T15:07:20;12.50;99.90
16829;DHT22;8531;48.078;11.968;2024-02-21T15:09:49;12.40;99.90
16829;DHT22;8531;48.078;11.968;2024-02-21T15:12:16;12.40;99.90
16829;DHT22;8531;48.078;11.968;2024-02-21T15:14:42;12.30;99.90
16829;DHT22;8531;48.078;11.968;2024-02-21T15:17:10;12.30;99.90
16829;DHT22;8531;48.078;11.968;2024-02-21T15:19:36;12.30;99.90
16829;DHT22;8531;48.078;11.968;2024-02-21T15:22:04;12.20;99.90
16829;DHT22;8531;48.078;11.968;2024-02-21T15:24:30;12.20;99.90
16829;DHT22;8531;48.078;11.968;2024-02-21T15:26:55;12.10;99.90
16829;DHT22;8531;48.078;11.968;2024-02-21T15:29:21;12.00;99.90
16829;DHT22;8531;48.078;11.968;2024-02-21T15:31:49;12.00;99.90
16829;DHT22;8531;48.078;11.968;2024-02-21T15:34:14;12.00;99.90
16829;DHT22;8531;48.078;11.968;2024-02-21T15:36:43;12.00;99.90
16829;DHT22;8531;48.078;11.968;2024-02-21T15:39:09;11.90;99.90
16829;DHT22;8531;48.078;11.968;2024-02-21T15:41:36;11.90;99.90
16829;DHT22;8531;48.078;11.968;2024-02-21T15:44:02;11.90;99.90
16829;DHT22;8531;48.078;11.968;2024-02-21T15:46:30;11.80;99.90
16829;DHT22;8531;48.078;11.968;2024-02-21T15:48:57;11.80;99.90